Time;durP1;ratioP1;P1;durP2;ratioP2;P2;SDS_P1;SDS_P2;PMS_P1;PMS_P2;Temp;Humidity;BMP_temperature;BMP_pressure;BME280_temperature;BME280_humidity;BME280_pressure;Samples;Min_cycle;Max_cycle;Signal;HPM_P1;HPM_P2
2023/04/16 00:00:59;;;;;;;;;;;9.30;99.90;;;;;;5018785;28;20397;-80
2023/04/16 00:03:26;;;;;;;;;;;9.30;99.90;;;;;;5019763;28;19933;-79
2023/04/16 00:05:54;;;;;;;;;;;9.30;99.90;;;;;;5017938;28;19969;-80
2023/04/16 00:08:23;;;;;;;;;;;9.30;99.90;;;;;;5019574;28;20030;-86
2023/04/16 00:10:50;;;;;;;;;;;9.30;99.90;;;;;;5018265;28;19925;-87
2023/04/16 00:13:17;;;;;;;;;;;9.30;99.90;;;;;;5011430;28;19930;-86
2023/04/16 00:15:44;;;;;;;;;;;9.30;99.90;;;;;;5012635;28;19930;-87
2023/04/16 00:18:12;;;;;;;;;;;9.40;99.90;;;;;;5032768;28;19932;-86
2023/04/16 00:20:40;;;;;;;;;;;9.40;99.90;;;;;;5017942;28;19979;-88
2023/04/16 00:23:07;;;;;;;;;;;9.40;99.90;;;;;;5011795;28;19929;-86
2023/04/16 00:25:37;;;;;;;;;;;9.40;99.90;;;;;;5050690;28;20356;-87
2023/04/16 00:28:04;;;;;;;;;;;9.40;99.90;;;;;;5012249;28;19930;-87
2023/04/16 00:30:32;;;;;;;;;;;9.40;99.90;;;;;;5016901;28;19930;-86
2023/04/16 00:32:59;;;;;;;;;;;9.40;99.90;;;;;;5036356;28;19925;-86
2023/04/16 00:35:28;;;;;;;;;;;9.40;99.90;;;;;;5050653;28;19997;-86
2023/04/16 00:37:55;;;;;;;;;;;9.40;99.90;;;;;;5030974;28;19936;-86
2023/04/16 00:40:22;;;;;;;;;;;9.40;99.90;;;;;;5014409;28;19939;-86
2023/04/16 00:42:49;;;;;;;;;;;9.40;99.90;;;;;;5048874;28;20525;-87
2023/04/16 00:45:16;;;;;;;;;;;9.40;99.90;;;;;;4999448;28;19957;-86
2023/04/16 00:47:43;;;;;;;;;;;9.40;99.90;;;;;;5002641;28;19929;-86
2023/04/16 00:50:11;;;;;;;;;;;9.30;99.90;;;;;;5011626;28;19926;-86
2023/04/16 00:52:39;;;;;;;;;;;9.40;99.90;;;;;;5007741;28;19926;-85
2023/04/16 00:55:07;;;;;;;;;;;9.40;99.90;;;;;;5014274;28;19930;-86
2023/04/16 00:57:34;;;;;;;;;;;9.40;99.90;;;;;;5005485;28;19953;-83
2023/04/16 01:00:00;;;;;;;;;;;9.40;99.90;;;;;;5016226;28;19929;-82
2023/04/16 01:02:27;;;;;;;;;;;9.40;99.90;;;;;;5008801;28;19930;-82
2023/04/16 01:04:55;;;;;;;;;;;9.40;99.90;;;;;;5004125;28;19929;-83
2023/04/16 01:07:22;;;;;;;;;;;9.40;99.90;;;;;;5016684;28;20389;-82
2023/04/16 01:09:50;;;;;;;;;;;9.40;99.90;;;;;;5029428;28;19973;-83
2023/04/16 01:12:18;;;;;;;;;;;9.40;99.90;;;;;;5012150;28;19934;-83
2023/04/16 01:14:45;;;;;;;;;;;9.40;99.90;;;;;;5011733;28;20278;-83
2023/04/16 01:17:12;;;;;;;;;;;9.40;99.90;;;;;;5016379;28;19932;-83
2023/04/16 01:19:39;;;;;;;;;;;9.40;99.90;;;;;;5010358;28;19936;-83
2023/04/16 01:22:08;;;;;;;;;;;9.40;99.90;;;;;;5008386;28;19930;-82
2023/04/16 01:24:35;;;;;;;;;;;9.40;99.90;;;;;;5007750;28;19929;-81
2023/04/16 01:27:02;;;;;;;;;;;9.40;99.90;;;;;;5012383;28;19949;-81
2023/04/16 01:29:29;;;;;;;;;;;9.40;99.90;;;;;;5018015;28;19933;-81
2023/04/16 01:31:58;;;;;;;;;;;9.40;99.90;;;;;;5007446;28;19933;-81
2023/04/16 01:34:33;;;;;;;;;;;9.30;99.90;;;;;;5011659;28;19930;-81
2023/04/16 01:37:00;;;;;;;;;;;9.30;99.90;;;;;;5021676;28;19937;-81
2023/04/16 01:39:29;;;;;;;;;;;9.30;99.90;;;;;;5041944;28;19964;-81
2023/04/16 01:41:57;;;;;;;;;;;9.30;99.90;;;;;;5002761;28;20012;-81
2023/04/16 01:44:24;;;;;;;;;;;9.30;99.90;;;;;;4995678;28;20394;-82
2023/04/16 01:46:51;;;;;;;;;;;9.30;99.90;;;;;;4996526;28;20370;-81
2023/04/16 01:49:18;;;;;;;;;;;9.30;99.90;;;;;;5022423;28;19961;-82
2023/04/16 01:51:46;;;;;;;;;;;9.30;99.90;;;;;;5006312;28;19926;-82
2023/04/16 01:54:13;;;;;;;;;;;9.30;99.90;;;;;;5008581;28;19933;-82
2023/04/16 01:56:41;;;;;;;;;;;9.20;99.90;;;;;;5011202;28;19925;-83
2023/04/16 01:59:08;;;;;;;;;;;9.30;99.90;;;;;;5009725;28;19930;-82
2023/04/16 02:01:41;;;;;;;;;;;9.20;99.90;;;;;;5046166;28;20410;-84
2023/04/16 02:04:08;;;;;;;;;;;9.20;99.90;;;;;;5002966;28;19969;-83
2023/04/16 02:06:35;;;;;;;;;;;9.30;99.90;;;;;;5025613;28;19936;-83
2023/04/16 02:09:02;;;;;;;;;;;9.30;99.90;;;;;;5008375;28;19976;-82
2023/04/16 02:11:29;;;;;;;;;;;9.30;99.90;;;;;;5016596;28;19930;-82
2023/04/16 02:13:58;;;;;;;;;;;9.30;99.90;;;;;;5001942;28;19925;-82
2023/04/16 02:16:26;;;;;;;;;;;9.30;99.90;;;;;;5000573;28;19934;-82
2023/04/16 02:19:05;;;;;;;;;;;9.30;99.90;;;;;;5036712;28;19925;-82
2023/04/16 02:21:35;;;;;;;;;;;9.30;99.90;;;;;;5013733;28;19926;-82
2023/04/16 02:24:03;;;;;;;;;;;8.70;99.90;;;;;;5001099;28;19965;-83
2023/04/16 02:26:31;;;;;;;;;;;9.30;99.90;;;;;;5020473;28;19929;-83
2023/04/16 02:29:05;;;;;;;;;;;9.30;99.90;;;;;;5010832;28;20048;-83
2023/04/16 02:31:39;;;;;;;;;;;9.20;99.90;;;;;;5007992;28;20416;-83
2023/04/16 02:34:07;;;;;;;;;;;9.20;99.90;;;;;;5013902;28;19926;-84
2023/04/16 02:36:34;;;;;;;;;;;9.20;99.90;;;;;;5018346;28;19940;-83
2023/04/16 02:39:01;;;;;;;;;;;9.20;99.90;;;;;;5018241;28;20308;-83
2023/04/16 02:41:28;;;;;;;;;;;9.20;99.90;;;;;;5014775;28;19939;-82
2023/04/16 02:43:55;;;;;;;;;;;9.20;99.90;;;;;;5018761;28;19914;-82
2023/04/16 02:46:23;;;;;;;;;;;9.20;99.90;;;;;;5002672;28;19913;-81
2023/04/16 02:48:50;;;;;;;;;;;9.20;99.90;;;;;;4998215;28;19926;-81
2023/04/16 02:51:17;;;;;;;;;;;9.10;99.90;;;;;;5012641;28;19926;-81
2023/04/16 02:53:44;;;;;;;;;;;9.10;99.90;;;;;;5013615;28;19945;-81
2023/04/16 02:56:17;;;;;;;;;;;9.10;99.90;;;;;;4998802;28;19995;-81
2023/04/16 02:58:45;;;;;;;;;;;9.20;99.90;;;;;;5015601;28;19934;-81
2023/04/16 03:01:12;;;;;;;;;;;9.20;99.90;;;;;;4998035;28;19944;-80
2023/04/16 03:04:17;;;;;;;;;;;9.20;99.90;;;;;;5012359;28;20364;-80
2023/04/16 03:06:45;;;;;;;;;;;9.20;99.90;;;;;;5016305;28;20365;-82
2023/04/16 03:09:12;;;;;;;;;;;9.20;99.90;;;;;;5016513;28;19925;-81
2023/04/16 03:11:39;;;;;;;;;;;9.10;99.90;;;;;;5015090;28;19926;-82
2023/04/16 03:14:28;;;;;;;;;;;9.20;99.90;;;;;;5014043;28;19965;-82
2023/04/16 03:16:55;;;;;;;;;;;9.20;99.90;;;;;;4996687;28;19929;-82
2023/04/16 03:19:25;;;;;;;;;;;9.20;99.90;;;;;;5012997;28;19932;-82
2023/04/16 03:21:53;;;;;;;;;;;9.30;99.90;;;;;;5012106;28;19980;-82
2023/04/16 03:24:20;;;;;;;;;;;9.30;99.90;;;;;;4995484;28;19938;-83
2023/04/16 03:26:49;;;;;;;;;;;9.30;99.90;;;;;;5011499;28;19933;-82
2023/04/16 03:29:16;;;;;;;;;;;9.30;99.90;;;;;;5012010;28;19973;-82
2023/04/16 03:31:43;;;;;;;;;;;9.30;99.90;;;;;;4999354;28;19996;-82
2023/04/16 03:34:10;;;;;;;;;;;9.30;99.90;;;;;;5017201;28;19932;-82
2023/04/16 03:36:39;;;;;;;;;;;9.40;99.90;;;;;;5023593;28;19961;-82
2023/04/16 03:39:07;;;;;;;;;;;9.40;99.90;;;;;;5011264;28;20370;-81
2023/04/16 03:41:35;;;;;;;;;;;9.40;99.90;;;;;;5018471;28;20006;-82
2023/04/16 03:44:03;;;;;;;;;;;9.40;99.90;;;;;;5017658;28;19926;-83
2023/04/16 03:46:30;;;;;;;;;;;9.40;99.90;;;;;;5012956;28;20460;-82
2023/04/16 03:48:57;;;;;;;;;;;9.40;99.90;;;;;;5018854;28;19932;-82
2023/04/16 03:51:25;;;;;;;;;;;9.50;99.90;;;;;;4997515;28;19925;-82
2023/04/16 03:53:52;;;;;;;;;;;9.50;99.90;;;;;;5008189;28;19926;-81
2023/04/16 03:56:21;;;;;;;;;;;9.50;99.90;;;;;;5015588;28;19929;-85
2023/04/16 03:58:51;;;;;;;;;;;9.50;99.90;;;;;;5013849;28;19925;-85
2023/04/16 04:01:19;;;;;;;;;;;9.50;99.90;;;;;;5015479;28;19984;-86
2023/04/16 04:03:47;;;;;;;;;;;9.50;99.90;;;;;;5009566;28;19961;-85
2023/04/16 04:06:15;;;;;;;;;;;9.50;99.90;;;;;;4995783;28;20024;-85
2023/04/16 04:08:42;;;;;;;;;;;9.50;99.90;;;;;;5010215;28;20024;-85
2023/04/16 04:11:10;;;;;;;;;;;9.60;99.90;;;;;;5012211;28;19956;-85
2023/04/16 04:13:40;;;;;;;;;;;9.60;99.90;;;;;;5011198;28;19925;-85
2023/04/16 04:16:07;;;;;;;;;;;9.60;99.90;;;;;;5005074;28;20054;-85
2023/04/16 04:18:34;;;;;;;;;;;9.60;99.90;;;;;;5014257;28;21926;-86
2023/04/16 04:21:04;;;;;;;;;;;9.60;99.90;;;;;;5026150;28;20337;-86
2023/04/16 04:23:33;;;;;;;;;;;9.60;99.90;;;;;;5006203;28;20395;-86
2023/04/16 04:26:02;;;;;;;;;;;9.60;99.90;;;;;;5014577;28;19936;-86
2023/04/16 04:28:30;;;;;;;;;;;9.60;99.90;;;;;;5012918;28;19934;-85
2023/04/16 04:31:00;;;;;;;;;;;9.60;99.90;;;;;;5011612;28;19937;-85
2023/04/16 04:33:28;;;;;;;;;;;9.60;99.90;;;;;;5014342;28;19930;-86
2023/04/16 04:36:00;;;;;;;;;;;9.60;99.90;;;;;;5026211;28;19969;-85
2023/04/16 04:38:28;;;;;;;;;;;9.60;99.90;;;;;;5043852;28;19913;-86
2023/04/16 04:40:55;;;;;;;;;;;9.60;99.90;;;;;;5018003;28;20363;-87
2023/04/16 04:43:24;;;;;;;;;;;9.60;99.90;;;;;;5014979;28;20292;-86
2023/04/16 04:45:51;;;;;;;;;;;9.60;99.90;;;;;;5014966;28;19960;-86
2023/04/16 04:48:25;;;;;;;;;;;9.60;99.90;;;;;;5011160;28;19929;-86
2023/04/16 04:50:52;;;;;;;;;;;9.60;99.90;;;;;;5010445;28;19926;-86
2023/04/16 04:53:19;;;;;;;;;;;9.60;99.90;;;;;;5018243;28;19945;-85
2023/04/16 04:55:46;;;;;;;;;;;9.60;99.90;;;;;;4995887;28;19961;-86
2023/04/16 04:58:14;;;;;;;;;;;9.60;99.90;;;;;;4997408;28;20012;-86
2023/04/16 05:00:43;;;;;;;;;;;9.60;99.90;;;;;;5014143;28;20408;-87
2023/04/16 05:03:10;;;;;;;;;;;9.50;99.90;;;;;;5005742;28;20020;-86
2023/04/16 05:05:39;;;;;;;;;;;9.60;99.90;;;;;;4997630;28;19929;-85
2023/04/16 05:08:06;;;;;;;;;;;9.60;99.90;;;;;;5013243;28;19962;-85
2023/04/16 05:10:33;;;;;;;;;;;9.60;99.90;;;;;;5013513;28;19964;-86
2023/04/16 05:13:00;;;;;;;;;;;9.60;99.90;;;;;;5015897;28;19929;-87
2023/04/16 05:15:27;;;;;;;;;;;9.50;99.90;;;;;;5015262;28;19933;-87
2023/04/16 05:17:55;;;;;;;;;;;9.60;99.90;;;;;;5015019;28;20012;-88
2023/04/16 05:20:23;;;;;;;;;;;9.60;99.90;;;;;;5013582;22;19926;-84
2023/04/16 05:22:51;;;;;;;;;;;9.60;99.90;;;;;;5053263;28;19914;-82
2023/04/16 05:25:20;;;;;;;;;;;9.60;99.90;;;;;;5032194;28;19917;-82
2023/04/16 05:27:47;;;;;;;;;;;9.50;99.90;;;;;;5035109;28;19940;-81
2023/04/16 05:30:14;;;;;;;;;;;9.50;99.90;;;;;;5036243;28;20002;-85
2023/04/16 05:32:40;;;;;;;;;;;9.50;99.90;;;;;;5034814;28;19925;-83
2023/04/16 05:35:08;;;;;;;;;;;9.50;99.90;;;;;;5036304;28;19929;-82
2023/04/16 05:37:35;;;;;;;;;;;9.50;99.90;;;;;;5035702;28;19961;-83
2023/04/16 05:40:03;;;;;;;;;;;9.60;99.90;;;;;;5036846;28;19977;-82
2023/04/16 05:42:30;;;;;;;;;;;9.50;99.90;;;;;;5037294;28;19913;-83
2023/04/16 05:44:57;;;;;;;;;;;9.50;99.90;;;;;;5036847;28;19924;-83
2023/04/16 05:47:37;;;;;;;;;;;9.40;99.90;;;;;;5037272;28;19944;-82
2023/04/16 05:50:04;;;;;;;;;;;9.50;99.90;;;;;;5042604;28;19928;-82
2023/04/16 05:52:31;;;;;;;;;;;9.50;99.90;;;;;;4932066;28;19948;-83
2023/04/16 05:55:00;;;;;;;;;;;9.50;99.90;;;;;;4879382;28;19980;-81
2023/04/16 05:57:30;;;;;;;;;;;9.50;99.90;;;;;;4915304;28;20329;-82
2023/04/16 06:00:01;;;;;;;;;;;9.40;99.90;;;;;;5016652;28;19917;-82
2023/04/16 06:02:38;;;;;;;;;;;9.30;99.90;;;;;;5058964;22;19932;-75
2023/04/16 06:05:05;;;;;;;;;;;9.30;99.90;;;;;;5046676;28;19970;-73
2023/04/16 06:07:32;;;;;;;;;;;9.20;99.90;;;;;;5045185;28;20002;-73
2023/04/16 06:10:00;;;;;;;;;;;9.20;99.90;;;;;;5031963;28;19929;-74
2023/04/16 06:12:27;;;;;;;;;;;9.20;99.90;;;;;;5023307;28;19932;-76
2023/04/16 06:14:55;;;;;;;;;;;9.20;99.90;;;;;;5028146;28;20012;-74
2023/04/16 06:17:22;;;;;;;;;;;9.20;99.90;;;;;;5028372;28;19976;-75
2023/04/16 06:19:48;;;;;;;;;;;9.20;99.90;;;;;;5034555;28;19932;-73
2023/04/16 06:22:15;;;;;;;;;;;9.10;99.90;;;;;;5027846;28;19929;-74
2023/04/16 06:24:42;;;;;;;;;;;9.10;99.90;;;;;;5027399;28;19929;-74
2023/04/16 06:27:09;;;;;;;;;;;9.00;99.90;;;;;;5028530;28;19929;-74
2023/04/16 06:29:36;;;;;;;;;;;9.00;99.90;;;;;;5026889;28;19933;-73
2023/04/16 06:32:04;;;;;;;;;;;9.00;99.90;;;;;;5027106;28;19929;-74
2023/04/16 06:34:31;;;;;;;;;;;9.00;99.90;;;;;;5024369;28;20023;-74
2023/04/16 06:36:57;;;;;;;;;;;9.00;99.90;;;;;;5025795;28;20024;-74
2023/04/16 06:39:24;;;;;;;;;;;9.00;99.90;;;;;;5026700;28;19960;-76
2023/04/16 06:41:51;;;;;;;;;;;9.00;99.90;;;;;;5026783;28;19931;-76
2023/04/16 06:44:18;;;;;;;;;;;9.00;99.90;;;;;;5033049;28;20394;-77
2023/04/16 06:46:44;;;;;;;;;;;9.00;99.90;;;;;;5032523;28;19933;-77
2023/04/16 06:49:12;;;;;;;;;;;9.10;99.90;;;;;;5027828;28;20072;-76
2023/04/16 06:51:39;;;;;;;;;;;9.20;99.90;;;;;;5026592;28;20422;-76
2023/04/16 06:54:06;;;;;;;;;;;9.20;99.90;;;;;;5028175;28;20283;-76
2023/04/16 06:56:33;;;;;;;;;;;9.30;99.90;;;;;;5027314;28;19929;-76
2023/04/16 06:58:59;;;;;;;;;;;9.30;99.90;;;;;;5027732;28;19932;-75
2023/04/16 07:01:26;;;;;;;;;;;9.40;99.90;;;;;;5020016;28;19934;-74
2023/04/16 07:03:53;;;;;;;;;;;9.40;99.90;;;;;;5027804;28;19929;-75
2023/04/16 07:06:21;;;;;;;;;;;9.50;99.90;;;;;;5025879;28;19956;-76
2023/04/16 07:08:48;;;;;;;;;;;9.60;99.90;;;;;;5026225;28;20016;-77
2023/04/16 07:11:15;;;;;;;;;;;9.70;99.90;;;;;;5024409;28;19936;-76
2023/04/16 07:13:42;;;;;;;;;;;9.90;99.90;;;;;;5027059;28;19929;-74
2023/04/16 07:16:08;;;;;;;;;;;10.00;99.90;;;;;;5027219;28;19951;-75
2023/04/16 07:18:35;;;;;;;;;;;10.10;99.90;;;;;;5042722;28;19929;-75
2023/04/16 07:21:02;;;;;;;;;;;10.20;99.90;;;;;;5041935;28;19913;-75
2023/04/16 07:23:30;;;;;;;;;;;10.40;99.90;;;;;;5033244;28;19933;-75
2023/04/16 07:25:56;;;;;;;;;;;10.50;99.90;;;;;;5029659;28;19944;-75
2023/04/16 07:28:24;;;;;;;;;;;10.70;99.90;;;;;;5028654;28;19960;-75
2023/04/16 07:30:50;;;;;;;;;;;10.70;99.90;;;;;;5026392;28;20638;-73
2023/04/16 07:33:17;;;;;;;;;;;10.80;99.90;;;;;;5024610;28;19940;-73
2023/04/16 07:35:44;;;;;;;;;;;10.90;99.90;;;;;;5027005;28;19929;-75
2023/04/16 07:38:11;;;;;;;;;;;11.10;99.90;;;;;;5025675;28;19928;-76
2023/04/16 07:40:39;;;;;;;;;;;11.20;99.90;;;;;;5026863;28;20301;-75
2023/04/16 07:43:06;;;;;;;;;;;11.30;99.90;;;;;;5025893;28;19925;-75
2023/04/16 07:45:33;;;;;;;;;;;11.30;99.90;;;;;;5028410;28;20361;-75
2023/04/16 07:48:00;;;;;;;;;;;10.80;99.90;;;;;;5028406;28;19925;-75
2023/04/16 07:50:26;;;;;;;;;;;11.40;99.90;;;;;;5025609;28;19933;-75
2023/04/16 07:52:53;;;;;;;;;;;11.50;99.90;;;;;;5028503;28;20387;-76
2023/04/16 07:55:20;;;;;;;;;;;11.50;99.90;;;;;;5025744;28;20028;-76
2023/04/16 07:57:48;;;;;;;;;;;11.60;99.90;;;;;;5027653;28;19929;-76
2023/04/16 08:00:16;;;;;;;;;;;11.70;99.90;;;;;;5020413;28;19925;-76
2023/04/16 08:02:43;;;;;;;;;;;11.90;99.90;;;;;;5024694;28;19939;-75
2023/04/16 08:05:09;;;;;;;;;;;12.10;99.90;;;;;;5025812;28;20047;-76
2023/04/16 08:07:36;;;;;;;;;;;12.30;99.90;;;;;;5025606;28;19925;-75
2023/04/16 08:10:03;;;;;;;;;;;12.30;99.90;;;;;;5025005;28;20271;-75
2023/04/16 08:12:29;;;;;;;;;;;12.40;99.90;;;;;;5030312;28;19936;-75
2023/04/16 08:14:57;;;;;;;;;;;12.30;99.90;;;;;;5033465;28;20386;-75
2023/04/16 08:17:24;;;;;;;;;;;12.30;99.90;;;;;;5030364;28;19940;-75
2023/04/16 08:19:51;;;;;;;;;;;12.30;99.90;;;;;;5030458;28;19998;-76
2023/04/16 08:22:18;;;;;;;;;;;12.30;99.90;;;;;;5025613;28;19929;-75
2023/04/16 08:24:44;;;;;;;;;;;12.30;99.90;;;;;;5026755;28;19928;-75
2023/04/16 08:27:11;;;;;;;;;;;12.40;99.90;;;;;;5029436;28;19925;-75
2023/04/16 08:29:38;;;;;;;;;;;12.50;99.90;;;;;;5021515;28;20540;-75
2023/04/16 08:32:08;;;;;;;;;;;12.70;99.90;;;;;;5028493;28;19936;-75
2023/04/16 08:34:35;;;;;;;;;;;12.90;99.90;;;;;;5029621;28;20266;-75
2023/04/16 08:37:01;;;;;;;;;;;13.00;99.90;;;;;;5030564;28;19937;-75
2023/04/16 08:39:28;;;;;;;;;;;12.90;99.90;;;;;;5029029;28;20204;-75
2023/04/16 08:41:55;;;;;;;;;;;13.00;99.90;;;;;;5028206;28;19929;-75
2023/04/16 08:44:25;;;;;;;;;;;13.30;99.90;;;;;;5031312;28;19936;-76
2023/04/16 08:46:56;;;;;;;;;;;13.80;99.90;;;;;;5023877;28;20403;-76
2023/04/16 08:49:24;;;;;;;;;;;14.40;99.90;;;;;;5024301;28;19929;-74
2023/04/16 08:51:51;;;;;;;;;;;15.00;99.90;;;;;;5029061;28;19933;-76
2023/04/16 08:54:25;;;;;;;;;;;15.50;99.90;;;;;;5024590;28;20006;-75
2023/04/16 08:56:52;;;;;;;;;;;16.20;99.90;;;;;;5029266;28;20330;-75
2023/04/16 08:59:19;;;;;;;;;;;16.30;99.90;;;;;;5022337;28;19925;-75
2023/04/16 09:01:47;;;;;;;;;;;16.70;99.90;;;;;;5023995;28;19952;-76
2023/04/16 09:04:15;;;;;;;;;;;16.70;99.90;;;;;;5031129;28;20311;-74
2023/04/16 09:06:43;;;;;;;;;;;16.40;99.90;;;;;;5032264;28;19925;-74
2023/04/16 09:09:11;;;;;;;;;;;16.00;99.90;;;;;;5030776;28;20016;-74
2023/04/16 09:11:38;;;;;;;;;;;15.90;99.90;;;;;;5026116;28;19933;-75
2023/04/16 09:14:09;;;;;;;;;;;16.10;99.90;;;;;;5024231;28;20473;-76
2023/04/16 09:16:36;;;;;;;;;;;16.30;99.90;;;;;;5030865;28;19935;-73
2023/04/16 09:19:03;;;;;;;;;;;16.40;99.90;;;;;;5025677;28;19933;-75
2023/04/16 09:21:31;;;;;;;;;;;16.60;99.90;;;;;;5026024;28;19951;-74
2023/04/16 09:23:59;;;;;;;;;;;16.70;99.90;;;;;;5026778;28;20013;-75
2023/04/16 09:26:27;;;;;;;;;;;16.70;99.90;;;;;;5029166;28;19931;-75
2023/04/16 09:28:54;;;;;;;;;;;16.70;99.90;;;;;;5030679;28;19936;-75
2023/04/16 09:31:21;;;;;;;;;;;16.70;99.90;;;;;;5026972;28;19930;-74
2023/04/16 09:34:01;;;;;;;;;;;16.60;99.90;;;;;;5026235;28;19929;-73
2023/04/16 09:36:27;;;;;;;;;;;16.40;99.90;;;;;;5029581;28;19957;-75
2023/04/16 09:38:54;;;;;;;;;;;16.00;99.90;;;;;;5029818;28;19999;-74
2023/04/16 09:41:26;;;;;;;;;;;15.90;99.90;;;;;;5028409;28;19988;-73
2023/04/16 09:43:56;;;;;;;;;;;15.90;99.90;;;;;;5037141;28;19987;-74
2023/04/16 09:46:24;;;;;;;;;;;15.80;99.90;;;;;;5031384;28;20184;-74
2023/04/16 09:48:51;;;;;;;;;;;16.10;99.90;;;;;;5037648;28;19925;-74
2023/04/16 09:51:17;;;;;;;;;;;16.10;99.90;;;;;;5029073;28;19936;-74
2023/04/16 09:53:44;;;;;;;;;;;16.20;99.90;;;;;;5031441;28;20015;-74
2023/04/16 09:56:11;;;;;;;;;;;16.40;99.90;;;;;;5028307;28;20386;-74
2023/04/16 09:58:40;;;;;;;;;;;16.80;99.90;;;;;;5027393;28;20270;-75
2023/04/16 10:01:07;;;;;;;;;;;17.10;99.90;;;;;;5026110;28;19964;-75
2023/04/16 10:03:35;;;;;;;;;;;17.50;99.90;;;;;;5029968;28;19929;-75
2023/04/16 10:06:06;;;;;;;;;;;17.80;99.90;;;;;;5033152;28;20370;-75
2023/04/16 10:08:33;;;;;;;;;;;17.80;99.90;;;;;;5022821;28;19933;-76
2023/04/16 10:11:00;;;;;;;;;;;17.60;99.90;;;;;;5030082;28;20311;-75
2023/04/16 10:13:29;;;;;;;;;;;17.60;99.90;;;;;;5026761;28;20559;-77
2023/04/16 10:15:57;;;;;;;;;;;17.80;99.90;;;;;;5031093;28;19925;-73
2023/04/16 10:18:24;;;;;;;;;;;17.90;99.90;;;;;;5027440;28;19933;-74
2023/04/16 10:20:51;;;;;;;;;;;17.70;99.90;;;;;;5025152;28;19925;-71
2023/04/16 10:23:19;;;;;;;;;;;17.60;99.90;;;;;;5026266;28;20492;-73
2023/04/16 10:25:45;;;;;;;;;;;17.90;99.90;;;;;;5029662;28;19944;-72
2023/04/16 10:28:13;;;;;;;;;;;18.50;99.90;;;;;;5033665;28;20404;-72
2023/04/16 10:30:41;;;;;;;;;;;18.70;99.90;;;;;;5031796;28;19929;-72
2023/04/16 10:33:09;;;;;;;;;;;18.70;99.90;;;;;;5032428;28;19929;-74
2023/04/16 10:35:39;;;;;;;;;;;18.70;99.90;;;;;;5043885;28;19929;-72
2023/04/16 10:38:24;;;;;;;;;;;18.90;99.90;;;;;;5043653;28;20583;-73
2023/04/16 10:40:57;;;;;;;;;;;18.70;99.90;;;;;;5050241;28;20084;-73
2023/04/16 10:43:25;;;;;;;;;;;18.50;99.90;;;;;;5047351;28;19925;-75
2023/04/16 10:45:53;;;;;;;;;;;18.50;99.90;;;;;;5047447;28;19929;-73
2023/04/16 10:48:23;;;;;;;;;;;18.50;99.90;;;;;;5031718;28;20020;-73
2023/04/16 10:50:54;;;;;;;;;;;18.30;99.90;;;;;;5033766;28;19929;-74
2023/04/16 10:53:23;;;;;;;;;;;18.50;99.90;;;;;;5026675;28;19935;-73
2023/04/16 10:55:56;;;;;;;;;;;18.50;99.90;;;;;;5035743;28;20398;-74
2023/04/16 10:58:29;;;;;;;;;;;18.40;99.90;;;;;;5028505;28;19976;-71
2023/04/16 11:00:58;;;;;;;;;;;18.20;99.90;;;;;;5030185;28;19929;-72
2023/04/16 11:03:29;;;;;;;;;;;18.10;99.90;;;;;;5029580;28;20306;-74
2023/04/16 11:06:09;;;;;;;;;;;18.10;99.90;;;;;;5031011;28;19937;-72
2023/04/16 11:08:36;;;;;;;;;;;18.20;99.90;;;;;;5025946;28;19925;-72
2023/04/16 11:11:04;;;;;;;;;;;18.60;99.90;;;;;;5023949;28;19939;-72
2023/04/16 11:13:31;;;;;;;;;;;18.90;99.90;;;;;;5028914;28;19925;-72
2023/04/16 11:15:58;;;;;;;;;;;19.40;99.90;;;;;;5045915;28;19913;-73
2023/04/16 11:18:27;;;;;;;;;;;18.80;99.90;;;;;;5047535;28;19933;-72
2023/04/16 11:20:54;;;;;;;;;;;18.50;99.90;;;;;;5038601;28;19931;-73
2023/04/16 11:23:20;;;;;;;;;;;18.40;99.90;;;;;;5029331;28;19940;-73
2023/04/16 11:25:50;;;;;;;;;;;18.20;99.90;;;;;;5028937;28;19929;-74
2023/04/16 11:30:53;;;;;;;;;;;18.20;99.90;;;;;;5470705;22;19999;-76
2023/04/16 11:33:20;;;;;;;;;;;18.00;99.90;;;;;;5033784;28;19928;-76
2023/04/16 11:35:56;;;;;;;;;;;17.80;99.90;;;;;;5032013;28;19928;-75
2023/04/16 11:38:32;;;;;;;;;;;17.90;99.90;;;;;;5032695;28;20887;-74
2023/04/16 11:40:59;;;;;;;;;;;17.80;99.90;;;;;;5026782;28;19929;-75
2023/04/16 11:43:26;;;;;;;;;;;17.60;99.90;;;;;;5001231;23;1797350;-79
2023/04/16 11:45:59;;;;;;;;;;;17.40;99.90;;;;;;5057799;28;19952;-77
2023/04/16 11:48:45;;;;;;;;;;;17.20;99.90;;;;;;5053613;28;19925;-77
2023/04/16 11:51:13;;;;;;;;;;;16.90;99.90;;;;;;5053864;28;19929;-77
2023/04/16 11:53:45;;;;;;;;;;;17.10;99.90;;;;;;5048950;28;19935;-77
2023/04/16 11:56:12;;;;;;;;;;;17.30;99.90;;;;;;5047037;28;19933;-76
2023/04/16 11:58:39;;;;;;;;;;;17.50;99.90;;;;;;5049767;28;19924;-76
2023/04/16 12:01:08;;;;;;;;;;;17.90;99.90;;;;;;5048233;28;20081;-76
2023/04/16 12:03:39;;;;;;;;;;;18.30;99.90;;;;;;5052008;28;19935;-77
2023/04/16 12:06:07;;;;;;;;;;;18.60;99.90;;;;;;5056086;28;19936;-77
2023/04/16 12:08:35;;;;;;;;;;;18.90;99.90;;;;;;5057870;28;19924;-80
2023/04/16 12:11:02;;;;;;;;;;;19.10;99.90;;;;;;5052673;28;19963;-76
2023/04/16 12:13:29;;;;;;;;;;;19.50;99.90;;;;;;5050929;28;19929;-76
2023/04/16 12:15:56;;;;;;;;;;;18.80;99.90;;;;;;5048922;28;19968;-78
2023/04/16 12:18:25;;;;;;;;;;;18.70;99.90;;;;;;5051864;28;20325;-79
2023/04/16 12:20:52;;;;;;;;;;;18.80;99.90;;;;;;5047843;28;19955;-79
2023/04/16 12:23:22;;;;;;;;;;;19.00;99.90;;;;;;5047759;28;19932;-78
2023/04/16 12:25:50;;;;;;;;;;;19.20;99.90;;;;;;5051099;28;19925;-78
2023/04/16 12:28:26;;;;;;;;;;;19.30;99.90;;;;;;5051866;28;19987;-77
2023/04/16 12:30:53;;;;;;;;;;;19.40;99.90;;;;;;5046407;28;20460;-78
2023/04/16 12:33:20;;;;;;;;;;;18.70;99.90;;;;;;5043355;28;20353;-78
2023/04/16 12:35:47;;;;;;;;;;;18.10;99.90;;;;;;5044641;28;20711;-77
2023/04/16 12:38:14;;;;;;;;;;;18.10;99.90;;;;;;5049958;28;20313;-78
2023/04/16 12:40:41;;;;;;;;;;;18.10;99.90;;;;;;5051392;28;19929;-78
2023/04/16 12:43:09;;;;;;;;;;;18.20;99.90;;;;;;5052023;28;19929;-78
2023/04/16 12:45:35;;;;;;;;;;;18.30;99.90;;;;;;5051893;28;19928;-78
2023/04/16 12:48:02;;;;;;;;;;;18.50;99.90;;;;;;5051205;28;19929;-78
2023/04/16 12:50:29;;;;;;;;;;;18.60;99.90;;;;;;5053584;28;19928;-78
2023/04/16 12:52:56;;;;;;;;;;;18.70;99.90;;;;;;5050825;28;19956;-78
2023/04/16 12:55:22;;;;;;;;;;;18.60;99.90;;;;;;5049893;28;19925;-78
2023/04/16 12:57:51;;;;;;;;;;;18.50;99.90;;;;;;5050546;28;19936;-78
2023/04/16 13:00:19;;;;;;;;;;;18.50;99.90;;;;;;5049708;28;20416;-78
2023/04/16 13:02:46;;;;;;;;;;;18.50;99.90;;;;;;5048909;28;19929;-78
2023/04/16 13:05:15;;;;;;;;;;;18.50;99.90;;;;;;5049312;28;19931;-79
2023/04/16 13:07:42;;;;;;;;;;;18.60;99.90;;;;;;5051932;28;19937;-78
2023/04/16 13:10:09;;;;;;;;;;;18.50;99.90;;;;;;5055000;28;20443;-77
2023/04/16 13:12:37;;;;;;;;;;;18.40;99.90;;;;;;5053880;28;19935;-78
2023/04/16 13:15:04;;;;;;;;;;;18.20;99.90;;;;;;5052222;28;19925;-80
2023/04/16 13:17:32;;;;;;;;;;;17.80;99.90;;;;;;5051984;28;19933;-78
2023/04/16 13:19:59;;;;;;;;;;;17.30;99.90;;;;;;5046722;28;19929;-78
2023/04/16 13:22:26;;;;;;;;;;;17.10;99.90;;;;;;5048306;28;20027;-78
2023/04/16 13:24:53;;;;;;;;;;;16.70;99.90;;;;;;5046012;28;19933;-78
2023/04/16 13:27:20;;;;;;;;;;;16.50;99.90;;;;;;5042883;28;20074;-78
2023/04/16 13:29:46;;;;;;;;;;;16.30;99.90;;;;;;5046947;28;19935;-78
2023/04/16 13:32:13;;;;;;;;;;;15.90;99.90;;;;;;5049494;28;19964;-78
2023/04/16 13:34:42;;;;;;;;;;;15.80;99.90;;;;;;5051305;28;19925;-78
2023/04/16 13:37:09;;;;;;;;;;;15.70;99.90;;;;;;5048292;28;19929;-78
2023/04/16 13:39:35;;;;;;;;;;;15.70;99.90;;;;;;5044322;28;19924;-78
2023/04/16 13:42:02;;;;;;;;;;;15.80;99.90;;;;;;5051799;28;19951;-78
2023/04/16 13:44:29;;;;;;;;;;;15.80;99.90;;;;;;5047439;28;19929;-78
2023/04/16 13:46:56;;;;;;;;;;;15.80;99.90;;;;;;5055171;28;19967;-79
2023/04/16 13:49:23;;;;;;;;;;;15.90;99.90;;;;;;5050127;28;19929;-78
2023/04/16 13:51:51;;;;;;;;;;;16.00;99.90;;;;;;5050836;28;20043;-78
2023/04/16 13:54:18;;;;;;;;;;;16.00;99.90;;;;;;5051765;28;19933;-78
2023/04/16 13:56:44;;;;;;;;;;;16.20;99.90;;;;;;5051305;28;20810;-79
2023/04/16 13:59:11;;;;;;;;;;;16.40;99.90;;;;;;5044961;28;19933;-80
2023/04/16 14:01:38;;;;;;;;;;;16.60;99.90;;;;;;5044212;28;20373;-79
2023/04/16 14:04:05;;;;;;;;;;;16.80;99.90;;;;;;5047071;28;19928;-79
2023/04/16 14:06:32;;;;;;;;;;;16.90;99.90;;;;;;5049713;28;19979;-78
2023/04/16 14:09:00;;;;;;;;;;;17.10;99.90;;;;;;5044202;28;19929;-78
2023/04/16 14:11:27;;;;;;;;;;;17.20;99.90;;;;;;5040049;28;19932;-78
2023/04/16 14:13:54;;;;;;;;;;;17.30;99.90;;;;;;5039673;28;19929;-79
2023/04/16 14:16:21;;;;;;;;;;;17.40;99.90;;;;;;5031538;28;19933;-78
2023/04/16 14:18:47;;;;;;;;;;;17.40;99.90;;;;;;5040705;28;19929;-78
2023/04/16 14:21:14;;;;;;;;;;;17.30;99.90;;;;;;5040118;28;21305;-78
2023/04/16 14:23:41;;;;;;;;;;;17.30;99.90;;;;;;5041047;28;20286;-77
2023/04/16 14:26:09;;;;;;;;;;;17.40;99.90;;;;;;5050195;28;19932;-78
2023/04/16 14:28:36;;;;;;;;;;;17.30;99.90;;;;;;5044595;28;19933;-79
2023/04/16 14:31:03;;;;;;;;;;;17.00;99.90;;;;;;5041003;28;20721;-80